sensor_id;sensor_type;location;lat;lon;timestamp;P1;durP1;ratioP1;P2;durP2;ratioP2
21562;SDS011;10942;47.894;11.424;2024-01-30T00:01:19;6.28;;;3.45;;
21562;SDS011;10942;47.894;11.424;2024-01-30T00:03:45;7.93;;;3.70;;
21562;SDS011;10942;47.894;11.424;2024-01-30T00:06:11;8.38;;;4.32;;
21562;SDS011;10942;47.894;11.424;2024-01-30T00:08:37;6.30;;;3.60;;
21562;SDS011;10942;47.894;11.424;2024-01-30T00:11:02;6.20;;;3.10;;
21562;SDS011;10942;47.894;11.424;2024-01-30T00:13:28;7.55;;;3.90;;
21562;SDS011;10942;47.894;11.424;2024-01-30T00:15:54;7.82;;;3.72;;
21562;SDS011;10942;47.894;11.424;2024-01-30T00:18:20;7.90;;;3.78;;
21562;SDS011;10942;47.894;11.424;2024-01-30T00:20:46;7.90;;;3.95;;
21562;SDS011;10942;47.894;11.424;2024-01-30T00:23:12;8.18;;;3.65;;
21562;SDS011;10942;47.894;11.424;2024-01-30T00:25:38;8.05;;;3.50;;
21562;SDS011;10942;47.894;11.424;2024-01-30T00:28:04;8.23;;;3.63;;
21562;SDS011;10942;47.894;11.424;2024-01-30T00:30:30;6.75;;;3.70;;
21562;SDS011;10942;47.894;11.424;2024-01-30T00:32:55;9.02;;;4.10;;
21562;SDS011;10942;47.894;11.424;2024-01-30T00:35:21;6.97;;;3.78;;
21562;SDS011;10942;47.894;11.424;2024-01-30T00:37:47;8.10;;;2.90;;
21562;SDS011;10942;47.894;11.424;2024-01-30T00:40:13;8.07;;;3.50;;
21562;SDS011;10942;47.894;11.424;2024-01-30T00:42:41;5.53;;;2.75;;
21562;SDS011;10942;47.894;11.424;2024-01-30T00:45:11;7.38;;;3.00;;
21562;SDS011;10942;47.894;11.424;2024-01-30T00:47:40;8.05;;;3.88;;
21562;SDS011;10942;47.894;11.424;2024-01-30T00:50:06;9.15;;;3.97;;
21562;SDS011;10942;47.894;11.424;2024-01-30T00:52:32;7.47;;;3.50;;
21562;SDS011;10942;47.894;11.424;2024-01-30T00:54:58;7.35;;;3.33;;
21562;SDS011;10942;47.894;11.424;2024-01-30T00:57:24;7.75;;;3.25;;
21562;SDS011;10942;47.894;11.424;2024-01-30T00:59:50;7.28;;;3.47;;
21562;SDS011;10942;47.894;11.424;2024-01-30T01:02:16;6.18;;;3.35;;
21562;SDS011;10942;47.894;11.424;2024-01-30T01:04:45;9.00;;;3.25;;
21562;SDS011;10942;47.894;11.424;2024-01-30T01:07:11;6.32;;;3.08;;
21562;SDS011;10942;47.894;11.424;2024-01-30T01:09:36;6.90;;;3.20;;
21562;SDS011;10942;47.894;11.424;2024-01-30T01:12:03;10.48;;;3.22;;
21562;SDS011;10942;47.894;11.424;2024-01-30T01:14:29;4.95;;;2.78;;
21562;SDS011;10942;47.894;11.424;2024-01-30T01:16:54;5.45;;;2.90;;
21562;SDS011;10942;47.894;11.424;2024-01-30T01:19:21;5.72;;;2.92;;
21562;SDS011;10942;47.894;11.424;2024-01-30T01:21:47;4.82;;;2.50;;
21562;SDS011;10942;47.894;11.424;2024-01-30T01:24:12;5.60;;;2.70;;
21562;SDS011;10942;47.894;11.424;2024-01-30T01:26:38;4.90;;;2.70;;
21562;SDS011;10942;47.894;11.424;2024-01-30T01:29:05;5.18;;;2.70;;
21562;SDS011;10942;47.894;11.424;2024-01-30T01:31:38;4.68;;;2.60;;
21562;SDS011;10942;47.894;11.424;2024-01-30T01:34:11;6.03;;;3.25;;
21562;SDS011;10942;47.894;11.424;2024-01-30T01:36:37;6.28;;;2.88;;
21562;SDS011;10942;47.894;11.424;2024-01-30T01:39:03;5.25;;;2.47;;
21562;SDS011;10942;47.894;11.424;2024-01-30T01:41:32;7.80;;;2.70;;
21562;SDS011;10942;47.894;11.424;2024-01-30T01:43:58;5.40;;;2.53;;
21562;SDS011;10942;47.894;11.424;2024-01-30T01:46:26;5.95;;;2.97;;
21562;SDS011;10942;47.894;11.424;2024-01-30T01:48:52;5.85;;;2.67;;
21562;SDS011;10942;47.894;11.424;2024-01-30T01:51:19;6.55;;;3.20;;
21562;SDS011;10942;47.894;11.424;2024-01-30T01:53:46;5.60;;;2.65;;
21562;SDS011;10942;47.894;11.424;2024-01-30T01:56:12;7.75;;;3.28;;
21562;SDS011;10942;47.894;11.424;2024-01-30T01:58:38;4.35;;;2.80;;
21562;SDS011;10942;47.894;11.424;2024-01-30T02:01:04;7.13;;;2.78;;
21562;SDS011;10942;47.894;11.424;2024-01-30T02:03:30;6.03;;;2.70;;
21562;SDS011;10942;47.894;11.424;2024-01-30T02:05:56;5.85;;;2.90;;
21562;SDS011;10942;47.894;11.424;2024-01-30T02:08:22;5.53;;;2.75;;
21562;SDS011;10942;47.894;11.424;2024-01-30T02:10:49;6.72;;;3.33;;
21562;SDS011;10942;47.894;11.424;2024-01-30T02:13:15;6.32;;;2.58;;
21562;SDS011;10942;47.894;11.424;2024-01-30T02:15:41;5.07;;;2.63;;
21562;SDS011;10942;47.894;11.424;2024-01-30T02:18:06;5.80;;;2.40;;
21562;SDS011;10942;47.894;11.424;2024-01-30T02:20:32;5.75;;;2.88;;
21562;SDS011;10942;47.894;11.424;2024-01-30T02:23:00;6.30;;;3.35;;
21562;SDS011;10942;47.894;11.424;2024-01-30T02:25:38;6.20;;;3.00;;
21562;SDS011;10942;47.894;11.424;2024-01-30T02:28:11;5.30;;;2.70;;
21562;SDS011;10942;47.894;11.424;2024-01-30T02:30:40;8.80;;;2.80;;
21562;SDS011;10942;47.894;11.424;2024-01-30T02:33:07;4.78;;;2.53;;
21562;SDS011;10942;47.894;11.424;2024-01-30T02:35:33;4.88;;;2.63;;
21562;SDS011;10942;47.894;11.424;2024-01-30T02:37:59;5.70;;;2.83;;
21562;SDS011;10942;47.894;11.424;2024-01-30T02:40:25;5.15;;;2.60;;
21562;SDS011;10942;47.894;11.424;2024-01-30T02:42:50;6.35;;;2.85;;
21562;SDS011;10942;47.894;11.424;2024-01-30T02:45:16;4.65;;;2.65;;
21562;SDS011;10942;47.894;11.424;2024-01-30T02:47:42;5.00;;;2.70;;
21562;SDS011;10942;47.894;11.424;2024-01-30T02:50:08;5.15;;;2.55;;
21562;SDS011;10942;47.894;11.424;2024-01-30T02:52:34;5.00;;;2.70;;
21562;SDS011;10942;47.894;11.424;2024-01-30T02:55:00;5.38;;;2.45;;
21562;SDS011;10942;47.894;11.424;2024-01-30T02:57:25;6.38;;;2.65;;
21562;SDS011;10942;47.894;11.424;2024-01-30T02:59:51;4.65;;;2.42;;
21562;SDS011;10942;47.894;11.424;2024-01-30T03:02:17;6.22;;;2.80;;
21562;SDS011;10942;47.894;11.424;2024-01-30T03:04:43;4.00;;;2.35;;
21562;SDS011;10942;47.894;11.424;2024-01-30T03:07:09;5.18;;;2.75;;
21562;SDS011;10942;47.894;11.424;2024-01-30T03:09:35;6.13;;;2.75;;
21562;SDS011;10942;47.894;11.424;2024-01-30T03:12:01;4.72;;;2.50;;
21562;SDS011;10942;47.894;11.424;2024-01-30T03:14:30;6.28;;;4.30;;
21562;SDS011;10942;47.894;11.424;2024-01-30T03:16:56;7.28;;;4.55;;
21562;SDS011;10942;47.894;11.424;2024-01-30T03:19:22;6.13;;;3.65;;
21562;SDS011;10942;47.894;11.424;2024-01-30T03:21:48;6.78;;;2.90;;
21562;SDS011;10942;47.894;11.424;2024-01-30T03:24:14;5.45;;;2.42;;
21562;SDS011;10942;47.894;11.424;2024-01-30T03:26:40;7.43;;;3.20;;
21562;SDS011;10942;47.894;11.424;2024-01-30T03:29:06;5.38;;;2.40;;
21562;SDS011;10942;47.894;11.424;2024-01-30T03:31:31;6.65;;;2.97;;
21562;SDS011;10942;47.894;11.424;2024-01-30T03:33:57;6.65;;;2.63;;
21562;SDS011;10942;47.894;11.424;2024-01-30T03:36:23;6.60;;;3.05;;
21562;SDS011;10942;47.894;11.424;2024-01-30T03:38:49;4.97;;;2.60;;
21562;SDS011;10942;47.894;11.424;2024-01-30T03:41:14;6.93;;;3.13;;
21562;SDS011;10942;47.894;11.424;2024-01-30T03:43:40;5.50;;;2.75;;
21562;SDS011;10942;47.894;11.424;2024-01-30T03:46:06;6.68;;;3.25;;
21562;SDS011;10942;47.894;11.424;2024-01-30T03:48:32;7.75;;;4.45;;
21562;SDS011;10942;47.894;11.424;2024-01-30T03:50:57;8.80;;;5.53;;
21562;SDS011;10942;47.894;11.424;2024-01-30T03:53:23;9.07;;;5.30;;
21562;SDS011;10942;47.894;11.424;2024-01-30T03:55:49;9.35;;;5.43;;
21562;SDS011;10942;47.894;11.424;2024-01-30T03:58:15;8.15;;;4.50;;
21562;SDS011;10942;47.894;11.424;2024-01-30T04:00:40;11.65;;;5.82;;
21562;SDS011;10942;47.894;11.424;2024-01-30T04:03:06;9.65;;;4.97;;
21562;SDS011;10942;47.894;11.424;2024-01-30T04:05:32;9.15;;;4.70;;
21562;SDS011;10942;47.894;11.424;2024-01-30T04:07:57;6.47;;;4.20;;
21562;SDS011;10942;47.894;11.424;2024-01-30T04:10:23;7.03;;;4.13;;
21562;SDS011;10942;47.894;11.424;2024-01-30T04:12:50;7.60;;;4.22;;
21562;SDS011;10942;47.894;11.424;2024-01-30T04:15:17;6.65;;;4.20;;
21562;SDS011;10942;47.894;11.424;2024-01-30T04:17:43;6.28;;;3.53;;
21562;SDS011;10942;47.894;11.424;2024-01-30T04:20:13;6.43;;;3.13;;
21562;SDS011;10942;47.894;11.424;2024-01-30T04:22:45;7.28;;;3.60;;
21562;SDS011;10942;47.894;11.424;2024-01-30T04:25:11;10.77;;;3.50;;
21562;SDS011;10942;47.894;11.424;2024-01-30T04:27:38;7.40;;;3.80;;
21562;SDS011;10942;47.894;11.424;2024-01-30T04:30:04;5.90;;;2.90;;
21562;SDS011;10942;47.894;11.424;2024-01-30T04:32:31;6.32;;;3.05;;
21562;SDS011;10942;47.894;11.424;2024-01-30T04:34:57;9.80;;;3.58;;
21562;SDS011;10942;47.894;11.424;2024-01-30T04:37:23;7.93;;;3.63;;
21562;SDS011;10942;47.894;11.424;2024-01-30T04:39:50;4.88;;;3.03;;
21562;SDS011;10942;47.894;11.424;2024-01-30T04:42:16;9.20;;;3.67;;
21562;SDS011;10942;47.894;11.424;2024-01-30T04:44:42;6.00;;;2.90;;
21562;SDS011;10942;47.894;11.424;2024-01-30T04:47:07;6.32;;;3.30;;
21562;SDS011;10942;47.894;11.424;2024-01-30T04:49:36;6.82;;;3.53;;
21562;SDS011;10942;47.894;11.424;2024-01-30T04:52:02;7.88;;;3.85;;
21562;SDS011;10942;47.894;11.424;2024-01-30T04:54:28;6.85;;;3.58;;
21562;SDS011;10942;47.894;11.424;2024-01-30T04:56:53;8.23;;;3.58;;
21562;SDS011;10942;47.894;11.424;2024-01-30T04:59:19;5.35;;;2.83;;
21562;SDS011;10942;47.894;11.424;2024-01-30T05:01:44;6.63;;;3.28;;
21562;SDS011;10942;47.894;11.424;2024-01-30T05:04:10;8.15;;;3.30;;
21562;SDS011;10942;47.894;11.424;2024-01-30T05:06:36;5.18;;;2.90;;
21562;SDS011;10942;47.894;11.424;2024-01-30T05:09:02;6.22;;;2.95;;
21562;SDS011;10942;47.894;11.424;2024-01-30T05:11:31;8.35;;;3.67;;
21562;SDS011;10942;47.894;11.424;2024-01-30T05:14:01;7.35;;;3.83;;
21562;SDS011;10942;47.894;11.424;2024-01-30T05:16:27;6.55;;;3.33;;
21562;SDS011;10942;47.894;11.424;2024-01-30T05:18:53;5.38;;;2.80;;
21562;SDS011;10942;47.894;11.424;2024-01-30T05:21:18;7.45;;;3.20;;
21562;SDS011;10942;47.894;11.424;2024-01-30T05:23:44;4.78;;;2.78;;
21562;SDS011;10942;47.894;11.424;2024-01-30T05:26:10;7.22;;;2.70;;
21562;SDS011;10942;47.894;11.424;2024-01-30T05:28:35;7.70;;;3.25;;
21562;SDS011;10942;47.894;11.424;2024-01-30T05:31:01;6.50;;;3.00;;
21562;SDS011;10942;47.894;11.424;2024-01-30T05:33:27;6.65;;;2.88;;
21562;SDS011;10942;47.894;11.424;2024-01-30T05:35:53;6.72;;;2.88;;
21562;SDS011;10942;47.894;11.424;2024-01-30T05:38:19;6.57;;;3.08;;
21562;SDS011;10942;47.894;11.424;2024-01-30T05:40:45;5.80;;;2.53;;
21562;SDS011;10942;47.894;11.424;2024-01-30T05:43:11;4.95;;;2.85;;
21562;SDS011;10942;47.894;11.424;2024-01-30T05:45:37;6.35;;;3.10;;
21562;SDS011;10942;47.894;11.424;2024-01-30T05:48:03;5.07;;;3.10;;
21562;SDS011;10942;47.894;11.424;2024-01-30T05:50:29;9.70;;;3.10;;
21562;SDS011;10942;47.894;11.424;2024-01-30T05:52:55;6.82;;;2.92;;
21562;SDS011;10942;47.894;11.424;2024-01-30T05:55:20;6.40;;;3.33;;
21562;SDS011;10942;47.894;11.424;2024-01-30T05:57:46;8.00;;;3.55;;
21562;SDS011;10942;47.894;11.424;2024-01-30T06:00:12;5.63;;;3.22;;
21562;SDS011;10942;47.894;11.424;2024-01-30T06:02:38;8.73;;;4.00;;
21562;SDS011;10942;47.894;11.424;2024-01-30T06:05:04;5.68;;;3.08;;
21562;SDS011;10942;47.894;11.424;2024-01-30T06:07:30;7.45;;;3.85;;
21562;SDS011;10942;47.894;11.424;2024-01-30T06:09:55;7.53;;;3.47;;
21562;SDS011;10942;47.894;11.424;2024-01-30T06:12:21;7.03;;;3.55;;
21562;SDS011;10942;47.894;11.424;2024-01-30T06:14:47;7.00;;;3.58;;
21562;SDS011;10942;47.894;11.424;2024-01-30T06:17:12;7.30;;;3.95;;
21562;SDS011;10942;47.894;11.424;2024-01-30T06:19:38;6.22;;;3.28;;
21562;SDS011;10942;47.894;11.424;2024-01-30T06:22:04;6.78;;;3.63;;
21562;SDS011;10942;47.894;11.424;2024-01-30T06:24:30;5.95;;;3.20;;
21562;SDS011;10942;47.894;11.424;2024-01-30T06:26:56;7.93;;;3.50;;
21562;SDS011;10942;47.894;11.424;2024-01-30T06:29:21;7.45;;;3.20;;
21562;SDS011;10942;47.894;11.424;2024-01-30T06:31:49;6.43;;;3.83;;
21562;SDS011;10942;47.894;11.424;2024-01-30T06:34:15;9.98;;;4.78;;
21562;SDS011;10942;47.894;11.424;2024-01-30T06:36:41;8.43;;;4.15;;
21562;SDS011;10942;47.894;11.424;2024-01-30T06:39:07;8.23;;;3.92;;
21562;SDS011;10942;47.894;11.424;2024-01-30T06:41:33;9.60;;;4.22;;
21562;SDS011;10942;47.894;11.424;2024-01-30T06:43:59;11.48;;;6.10;;
21562;SDS011;10942;47.894;11.424;2024-01-30T06:46:25;10.15;;;6.05;;
21562;SDS011;10942;47.894;11.424;2024-01-30T06:48:50;12.00;;;6.68;;
21562;SDS011;10942;47.894;11.424;2024-01-30T06:51:16;8.35;;;5.85;;
21562;SDS011;10942;47.894;11.424;2024-01-30T06:53:42;9.38;;;5.15;;
21562;SDS011;10942;47.894;11.424;2024-01-30T06:56:07;8.65;;;4.70;;
21562;SDS011;10942;47.894;11.424;2024-01-30T06:58:33;9.57;;;4.65;;
21562;SDS011;10942;47.894;11.424;2024-01-30T07:00:59;6.90;;;3.70;;
21562;SDS011;10942;47.894;11.424;2024-01-30T07:03:25;6.85;;;3.78;;
21562;SDS011;10942;47.894;11.424;2024-01-30T07:05:50;6.80;;;3.17;;
21562;SDS011;10942;47.894;11.424;2024-01-30T07:08:16;6.45;;;3.13;;
21562;SDS011;10942;47.894;11.424;2024-01-30T07:10:43;10.48;;;4.10;;
21562;SDS011;10942;47.894;11.424;2024-01-30T07:13:09;7.25;;;3.47;;
21562;SDS011;10942;47.894;11.424;2024-01-30T07:15:38;4.75;;;2.90;;
21562;SDS011;10942;47.894;11.424;2024-01-30T07:18:04;8.02;;;3.40;;
21562;SDS011;10942;47.894;11.424;2024-01-30T07:20:30;6.07;;;3.13;;
21562;SDS011;10942;47.894;11.424;2024-01-30T07:22:59;7.47;;;3.35;;
21562;SDS011;10942;47.894;11.424;2024-01-30T07:25:25;6.80;;;3.03;;
21562;SDS011;10942;47.894;11.424;2024-01-30T07:27:55;7.38;;;3.53;;
21562;SDS011;10942;47.894;11.424;2024-01-30T07:30:24;9.32;;;3.15;;
21562;SDS011;10942;47.894;11.424;2024-01-30T07:32:49;8.55;;;4.15;;
21562;SDS011;10942;47.894;11.424;2024-01-30T07:35:15;13.85;;;6.05;;
21562;SDS011;10942;47.894;11.424;2024-01-30T07:37:41;13.55;;;6.68;;
21562;SDS011;10942;47.894;11.424;2024-01-30T07:40:07;14.98;;;7.47;;
21562;SDS011;10942;47.894;11.424;2024-01-30T07:42:33;19.80;;;10.10;;
21562;SDS011;10942;47.894;11.424;2024-01-30T07:44:59;35.95;;;17.73;;
21562;SDS011;10942;47.894;11.424;2024-01-30T07:47:25;58.20;;;27.95;;
21562;SDS011;10942;47.894;11.424;2024-01-30T07:49:51;54.08;;;24.65;;
21562;SDS011;10942;47.894;11.424;2024-01-30T07:52:17;69.95;;;32.75;;
21562;SDS011;10942;47.894;11.424;2024-01-30T07:54:42;109.90;;;54.55;;
21562;SDS011;10942;47.894;11.424;2024-01-30T07:57:08;87.72;;;37.47;;
21562;SDS011;10942;47.894;11.424;2024-01-30T07:59:34;87.03;;;33.20;;
21562;SDS011;10942;47.894;11.424;2024-01-30T08:01:59;41.22;;;17.10;;
21562;SDS011;10942;47.894;11.424;2024-01-30T08:04:25;32.42;;;15.90;;
21562;SDS011;10942;47.894;11.424;2024-01-30T08:06:51;30.17;;;15.35;;
21562;SDS011;10942;47.894;11.424;2024-01-30T08:09:17;21.67;;;11.77;;
21562;SDS011;10942;47.894;11.424;2024-01-30T08:11:43;20.70;;;11.02;;
21562;SDS011;10942;47.894;11.424;2024-01-30T08:14:08;17.52;;;8.70;;
21562;SDS011;10942;47.894;11.424;2024-01-30T08:16:34;12.50;;;7.50;;
21562;SDS011;10942;47.894;11.424;2024-01-30T08:19:00;16.88;;;8.95;;
21562;SDS011;10942;47.894;11.424;2024-01-30T08:21:26;11.52;;;6.85;;
21562;SDS011;10942;47.894;11.424;2024-01-30T08:23:52;12.95;;;6.60;;
21562;SDS011;10942;47.894;11.424;2024-01-30T08:26:17;13.45;;;8.90;;
21562;SDS011;10942;47.894;11.424;2024-01-30T08:28:43;13.63;;;8.63;;
21562;SDS011;10942;47.894;11.424;2024-01-30T08:31:10;16.08;;;9.40;;
21562;SDS011;10942;47.894;11.424;2024-01-30T08:33:37;20.52;;;13.75;;
21562;SDS011;10942;47.894;11.424;2024-01-30T08:36:02;18.92;;;12.80;;
21562;SDS011;10942;47.894;11.424;2024-01-30T08:38:28;13.90;;;8.35;;
21562;SDS011;10942;47.894;11.424;2024-01-30T08:40:54;36.88;;;21.25;;
21562;SDS011;10942;47.894;11.424;2024-01-30T08:43:21;28.27;;;16.58;;
21562;SDS011;10942;47.894;11.424;2024-01-30T08:45:46;24.73;;;15.48;;
21562;SDS011;10942;47.894;11.424;2024-01-30T08:48:12;20.27;;;12.88;;
21562;SDS011;10942;47.894;11.424;2024-01-30T08:50:38;15.55;;;9.90;;
21562;SDS011;10942;47.894;11.424;2024-01-30T08:53:03;15.63;;;9.57;;
21562;SDS011;10942;47.894;11.424;2024-01-30T08:55:29;14.05;;;9.38;;
21562;SDS011;10942;47.894;11.424;2024-01-30T08:57:55;17.25;;;10.45;;
21562;SDS011;10942;47.894;11.424;2024-01-30T09:00:21;13.30;;;9.20;;
21562;SDS011;10942;47.894;11.424;2024-01-30T09:02:47;15.40;;;8.80;;
21562;SDS011;10942;47.894;11.424;2024-01-30T09:05:13;12.40;;;6.97;;
21562;SDS011;10942;47.894;11.424;2024-01-30T09:07:38;10.55;;;6.53;;
21562;SDS011;10942;47.894;11.424;2024-01-30T09:10:05;11.55;;;7.57;;
21562;SDS011;10942;47.894;11.424;2024-01-30T09:12:31;10.77;;;7.25;;
21562;SDS011;10942;47.894;11.424;2024-01-30T09:14:57;13.23;;;7.57;;
21562;SDS011;10942;47.894;11.424;2024-01-30T09:17:22;13.48;;;9.23;;
21562;SDS011;10942;47.894;11.424;2024-01-30T09:19:48;18.38;;;12.05;;
21562;SDS011;10942;47.894;11.424;2024-01-30T09:22:15;18.17;;;11.23;;
21562;SDS011;10942;47.894;11.424;2024-01-30T09:24:41;14.35;;;9.93;;
21562;SDS011;10942;47.894;11.424;2024-01-30T09:27:07;15.23;;;9.43;;
21562;SDS011;10942;47.894;11.424;2024-01-30T09:29:32;17.42;;;11.82;;
21562;SDS011;10942;47.894;11.424;2024-01-30T09:32:01;21.67;;;12.75;;
21562;SDS011;10942;47.894;11.424;2024-01-30T09:34:26;17.58;;;7.97;;
21562;SDS011;10942;47.894;11.424;2024-01-30T09:36:52;11.32;;;6.82;;
21562;SDS011;10942;47.894;11.424;2024-01-30T09:39:18;10.82;;;6.70;;
21562;SDS011;10942;47.894;11.424;2024-01-30T09:41:48;9.82;;;6.78;;
21562;SDS011;10942;47.894;11.424;2024-01-30T09:44:18;10.70;;;6.05;;
21562;SDS011;10942;47.894;11.424;2024-01-30T09:46:46;9.60;;;6.10;;
21562;SDS011;10942;47.894;11.424;2024-01-30T09:49:15;11.00;;;6.15;;
21562;SDS011;10942;47.894;11.424;2024-01-30T09:51:44;9.15;;;5.07;;
21562;SDS011;10942;47.894;11.424;2024-01-30T09:54:10;8.98;;;5.22;;
21562;SDS011;10942;47.894;11.424;2024-01-30T09:56:40;6.55;;;3.80;;
21562;SDS011;10942;47.894;11.424;2024-01-30T09:59:06;8.75;;;4.55;;
21562;SDS011;10942;47.894;11.424;2024-01-30T10:01:31;8.27;;;5.35;;
21562;SDS011;10942;47.894;11.424;2024-01-30T10:04:00;8.48;;;5.20;;
21562;SDS011;10942;47.894;11.424;2024-01-30T10:06:26;9.65;;;5.13;;
21562;SDS011;10942;47.894;11.424;2024-01-30T10:08:52;9.15;;;5.40;;
21562;SDS011;10942;47.894;11.424;2024-01-30T10:11:18;10.43;;;4.32;;
21562;SDS011;10942;47.894;11.424;2024-01-30T10:13:44;7.53;;;4.18;;
21562;SDS011;10942;47.894;11.424;2024-01-30T10:16:09;8.70;;;4.18;;
21562;SDS011;10942;47.894;11.424;2024-01-30T10:18:35;7.35;;;3.50;;
21562;SDS011;10942;47.894;11.424;2024-01-30T10:21:01;5.45;;;3.28;;
21562;SDS011;10942;47.894;11.424;2024-01-30T10:23:27;5.88;;;3.78;;
21562;SDS011;10942;47.894;11.424;2024-01-30T10:25:52;6.82;;;4.22;;
21562;SDS011;10942;47.894;11.424;2024-01-30T10:28:18;6.18;;;4.30;;
21562;SDS011;10942;47.894;11.424;2024-01-30T10:30:44;7.18;;;3.70;;
21562;SDS011;10942;47.894;11.424;2024-01-30T10:33:09;5.63;;;3.53;;
21562;SDS011;10942;47.894;11.424;2024-01-30T10:35:35;5.20;;;2.80;;
21562;SDS011;10942;47.894;11.424;2024-01-30T10:38:01;5.05;;;2.85;;
21562;SDS011;10942;47.894;11.424;2024-01-30T10:40:28;3.83;;;2.03;;
21562;SDS011;10942;47.894;11.424;2024-01-30T10:42:55;4.40;;;1.90;;
21562;SDS011;10942;47.894;11.424;2024-01-30T10:45:21;6.95;;;2.05;;
21562;SDS011;10942;47.894;11.424;2024-01-30T10:47:54;4.15;;;2.30;;
21562;SDS011;10942;47.894;11.424;2024-01-30T10:50:26;3.08;;;1.70;;
21562;SDS011;10942;47.894;11.424;2024-01-30T10:52:53;2.42;;;1.42;;
21562;SDS011;10942;47.894;11.424;2024-01-30T10:55:20;2.60;;;1.60;;
21562;SDS011;10942;47.894;11.424;2024-01-30T10:57:48;2.85;;;1.60;;
21562;SDS011;10942;47.894;11.424;2024-01-30T11:00:14;3.65;;;1.35;;
21562;SDS011;10942;47.894;11.424;2024-01-30T11:02:41;2.13;;;1.17;;
21562;SDS011;10942;47.894;11.424;2024-01-30T11:05:09;2.42;;;1.40;;
21562;SDS011;10942;47.894;11.424;2024-01-30T11:07:35;1.92;;;1.02;;
21562;SDS011;10942;47.894;11.424;2024-01-30T11:10:04;2.35;;;1.48;;
21562;SDS011;10942;47.894;11.424;2024-01-30T11:12:32;6.53;;;3.55;;
21562;SDS011;10942;47.894;11.424;2024-01-30T11:17:39;4.10;;;2.13;;
21562;SDS011;10942;47.894;11.424;2024-01-30T11:20:27;4.40;;;2.45;;
21562;SDS011;10942;47.894;11.424;2024-01-30T11:22:58;4.18;;;2.58;;
21562;SDS011;10942;47.894;11.424;2024-01-30T11:25:27;3.50;;;1.90;;
21562;SDS011;10942;47.894;11.424;2024-01-30T11:27:55;3.83;;;2.00;;
21562;SDS011;10942;47.894;11.424;2024-01-30T11:30:22;2.85;;;1.50;;
21562;SDS011;10942;47.894;11.424;2024-01-30T11:35:42;3.05;;;1.50;;
21562;SDS011;10942;47.894;11.424;2024-01-30T11:38:15;1.20;;;0.60;;
21562;SDS011;10942;47.894;11.424;2024-01-30T11:40:41;2.15;;;1.00;;
21562;SDS011;10942;47.894;11.424;2024-01-30T11:43:09;1.90;;;1.00;;
21562;SDS011;10942;47.894;11.424;2024-01-30T11:45:35;2.08;;;1.05;;
21562;SDS011;10942;47.894;11.424;2024-01-30T11:48:02;2.60;;;1.38;;
21562;SDS011;10942;47.894;11.424;2024-01-30T11:50:31;2.50;;;1.40;;
21562;SDS011;10942;47.894;11.424;2024-01-30T11:53:00;3.15;;;1.25;;
21562;SDS011;10942;47.894;11.424;2024-01-30T11:55:25;4.03;;;1.60;;
21562;SDS011;10942;47.894;11.424;2024-01-30T11:57:54;3.35;;;1.75;;
21562;SDS011;10942;47.894;11.424;2024-01-30T12:00:21;3.63;;;1.42;;
21562;SDS011;10942;47.894;11.424;2024-01-30T12:02:54;4.13;;;1.33;;
21562;SDS011;10942;47.894;11.424;2024-01-30T12:05:25;4.10;;;1.30;;
21562;SDS011;10942;47.894;11.424;2024-01-30T12:07:51;2.35;;;1.40;;
21562;SDS011;10942;47.894;11.424;2024-01-30T12:10:17;3.47;;;1.65;;
21562;SDS011;10942;47.894;11.424;2024-01-30T12:12:45;4.57;;;1.45;;
21562;SDS011;10942;47.894;11.424;2024-01-30T12:15:13;4.57;;;1.38;;
21562;SDS011;10942;47.894;11.424;2024-01-30T12:17:39;3.88;;;1.30;;
21562;SDS011;10942;47.894;11.424;2024-01-30T12:20:06;3.35;;;1.20;;
21562;SDS011;10942;47.894;11.424;2024-01-30T12:22:36;3.08;;;1.20;;
21562;SDS011;10942;47.894;11.424;2024-01-30T12:25:07;5.43;;;1.95;;
21562;SDS011;10942;47.894;11.424;2024-01-30T12:27:33;3.13;;;1.20;;
21562;SDS011;10942;47.894;11.424;2024-01-30T12:29:59;3.60;;;1.52;;
21562;SDS011;10942;47.894;11.424;2024-01-30T12:32:25;4.05;;;1.30;;
21562;SDS011;10942;47.894;11.424;2024-01-30T12:34:54;5.70;;;1.27;;
21562;SDS011;10942;47.894;11.424;2024-01-30T12:37:21;3.72;;;1.42;;
21562;SDS011;10942;47.894;11.424;2024-01-30T12:39:48;3.10;;;1.15;;
21562;SDS011;10942;47.894;11.424;2024-01-30T12:42:14;4.07;;;1.50;;
21562;SDS011;10942;47.894;11.424;2024-01-30T12:44:40;2.05;;;1.08;;
21562;SDS011;10942;47.894;11.424;2024-01-30T12:47:08;4.63;;;1.25;;
21562;SDS011;10942;47.894;11.424;2024-01-30T12:49:34;3.45;;;1.38;;
21562;SDS011;10942;47.894;11.424;2024-01-30T12:52:00;3.15;;;1.20;;
21562;SDS011;10942;47.894;11.424;2024-01-30T12:54:26;2.40;;;1.10;;
21562;SDS011;10942;47.894;11.424;2024-01-30T12:56:52;2.50;;;1.02;;
21562;SDS011;10942;47.894;11.424;2024-01-30T12:59:18;2.95;;;1.02;;
21562;SDS011;10942;47.894;11.424;2024-01-30T13:01:43;4.80;;;1.42;;
21562;SDS011;10942;47.894;11.424;2024-01-30T13:04:09;3.80;;;1.00;;
21562;SDS011;10942;47.894;11.424;2024-01-30T13:06:35;5.07;;;1.20;;
21562;SDS011;10942;47.894;11.424;2024-01-30T13:09:00;2.10;;;1.25;;
21562;SDS011;10942;47.894;11.424;2024-01-30T13:11:26;2.55;;;1.20;;
21562;SDS011;10942;47.894;11.424;2024-01-30T13:13:52;2.95;;;1.65;;
21562;SDS011;10942;47.894;11.424;2024-01-30T13:16:17;2.13;;;1.15;;
21562;SDS011;10942;47.894;11.424;2024-01-30T13:18:43;2.28;;;1.08;;
21562;SDS011;10942;47.894;11.424;2024-01-30T13:21:09;4.68;;;1.58;;
21562;SDS011;10942;47.894;11.424;2024-01-30T13:23:35;4.25;;;1.70;;
21562;SDS011;10942;47.894;11.424;2024-01-30T13:26:01;2.22;;;1.10;;
21562;SDS011;10942;47.894;11.424;2024-01-30T13:28:27;2.50;;;1.23;;
21562;SDS011;10942;47.894;11.424;2024-01-30T13:30:53;1.92;;;1.10;;
21562;SDS011;10942;47.894;11.424;2024-01-30T13:33:19;2.70;;;1.33;;
21562;SDS011;10942;47.894;11.424;2024-01-30T13:35:44;3.67;;;1.23;;
21562;SDS011;10942;47.894;11.424;2024-01-30T13:38:10;2.72;;;0.90;;
21562;SDS011;10942;47.894;11.424;2024-01-30T13:40:36;4.70;;;1.90;;
21562;SDS011;10942;47.894;11.424;2024-01-30T13:43:02;4.75;;;2.53;;
21562;SDS011;10942;47.894;11.424;2024-01-30T13:45:27;4.05;;;1.45;;
21562;SDS011;10942;47.894;11.424;2024-01-30T13:47:53;4.10;;;1.95;;
21562;SDS011;10942;47.894;11.424;2024-01-30T13:50:19;3.35;;;1.25;;
21562;SDS011;10942;47.894;11.424;2024-01-30T13:52:45;5.15;;;1.50;;
21562;SDS011;10942;47.894;11.424;2024-01-30T13:55:11;5.03;;;1.83;;
21562;SDS011;10942;47.894;11.424;2024-01-30T13:57:36;5.78;;;2.13;;
21562;SDS011;10942;47.894;11.424;2024-01-30T14:00:03;4.40;;;1.67;;
21562;SDS011;10942;47.894;11.424;2024-01-30T14:02:38;6.55;;;3.22;;
21562;SDS011;10942;47.894;11.424;2024-01-30T14:05:04;7.63;;;2.38;;
21562;SDS011;10942;47.894;11.424;2024-01-30T14:07:29;6.00;;;2.90;;
21562;SDS011;10942;47.894;11.424;2024-01-30T14:09:55;9.65;;;4.40;;
21562;SDS011;10942;47.894;11.424;2024-01-30T14:12:21;4.85;;;2.53;;
21562;SDS011;10942;47.894;11.424;2024-01-30T14:14:47;2.45;;;1.15;;
21562;SDS011;10942;47.894;11.424;2024-01-30T14:17:13;3.60;;;0.90;;
21562;SDS011;10942;47.894;11.424;2024-01-30T14:19:39;3.72;;;0.80;;
21562;SDS011;10942;47.894;11.424;2024-01-30T14:22:05;3.70;;;1.70;;
21562;SDS011;10942;47.894;11.424;2024-01-30T14:24:32;3.53;;;0.90;;
21562;SDS011;10942;47.894;11.424;2024-01-30T14:26:58;2.88;;;1.05;;
21562;SDS011;10942;47.894;11.424;2024-01-30T14:29:24;6.95;;;2.63;;
21562;SDS011;10942;47.894;11.424;2024-01-30T14:31:51;3.42;;;1.40;;